Time;durP1;ratioP1;P1;durP2;ratioP2;P2;SDS_P1;SDS_P2;PMS_P1;PMS_P2;Temp;Humidity;BMP_temperature;BMP_pressure;BME280_temperature;BME280_humidity;BME280_pressure;Samples;Min_cycle;Max_cycle;Signal;HPM_P1;HPM_P2
2023/03/18 00:00:29;;;;;;;3.33;2.73;;;4.70;70.30;;;;;;5104867;28;20954;-77
2023/03/18 00:02:59;;;;;;;5.37;3.23;;;4.60;70.70;;;;;;5106704;28;20503;-77
2023/03/18 00:05:26;;;;;;;6.23;2.80;;;4.50;71.00;;;;;;5107442;28;20503;-77
2023/03/18 00:07:53;;;;;;;4.77;2.53;;;4.60;70.00;;;;;;5107113;28;20960;-76
2023/03/18 00:10:20;;;;;;;5.33;3.27;;;4.60;70.20;;;;;;5099482;28;20524;-76
2023/03/18 00:12:47;;;;;;;10.10;3.77;;;4.60;70.80;;;;;;5099339;28;20446;-77
2023/03/18 00:15:17;;;;;;;8.80;3.87;;;4.40;71.80;;;;;;5101418;28;20463;-76
2023/03/18 00:17:44;;;;;;;9.07;2.63;;;4.40;71.80;;;;;;5097530;28;20801;-76
2023/03/18 00:20:15;;;;;;;4.70;2.97;;;4.40;71.40;;;;;;5105722;28;20438;-76
2023/03/18 00:22:44;;;;;;;5.03;3.10;;;4.40;71.50;;;;;;5101182;28;20870;-76
2023/03/18 00:25:13;;;;;;;4.27;3.07;;;4.50;71.20;;;;;;5106096;28;20457;-75
2023/03/18 00:27:40;;;;;;;6.13;4.13;;;4.40;72.30;;;;;;5107325;28;20447;-76
2023/03/18 00:30:09;;;;;;;4.10;2.90;;;4.30;72.60;;;;;;5102673;28;20822;-76
2023/03/18 00:32:37;;;;;;;2.70;1.90;;;4.20;72.30;;;;;;5107410;28;20466;-76
2023/03/18 00:35:05;;;;;;;3.13;2.83;;;4.20;72.70;;;;;;5106896;28;20447;-75
2023/03/18 00:37:35;;;;;;;5.43;3.33;;;4.20;73.00;;;;;;5098000;28;20466;-76
2023/03/18 00:40:05;;;;;;;4.10;2.63;;;4.10;74.30;;;;;;5107248;28;20438;-77
2023/03/18 00:42:37;;;;;;;3.83;3.00;;;4.00;74.60;;;;;;5107020;28;20453;-76
2023/03/18 00:45:06;;;;;;;4.80;3.33;;;4.00;74.60;;;;;;5106264;28;20517;-76
2023/03/18 00:47:33;;;;;;;3.10;2.23;;;4.00;74.60;;;;;;5106489;28;20861;-78
2023/03/18 00:50:00;;;;;;;6.03;3.50;;;4.00;74.20;;;;;;5106386;28;20447;-77
2023/03/18 00:52:27;;;;;;;5.53;3.67;;;4.00;74.50;;;;;;5105826;28;20450;-77
2023/03/18 00:54:55;;;;;;;4.47;2.87;;;4.00;75.00;;;;;;5100834;28;20461;-76
2023/03/18 00:57:23;;;;;;;5.80;3.30;;;4.00;74.10;;;;;;5100413;28;20559;-75
2023/03/18 00:59:50;;;;;;;4.90;2.73;;;4.00;74.90;;;;;;5103723;28;20537;-77
2023/03/18 01:02:17;;;;;;;8.27;4.30;;;3.90;75.00;;;;;;5099964;28;20836;-76
2023/03/18 01:04:45;;;;;;;7.10;3.60;;;4.00;74.60;;;;;;5090977;28;20513;-76
2023/03/18 01:07:12;;;;;;;8.10;3.63;;;3.90;74.30;;;;;;5099144;28;20574;-76
2023/03/18 01:09:39;;;;;;;5.40;4.87;;;3.80;75.20;;;;;;5104809;28;20447;-76
2023/03/18 01:12:10;;;;;;;6.37;3.27;;;3.90;74.50;;;;;;5101882;28;20451;-75
2023/03/18 01:14:38;;;;;;;3.37;2.83;;;3.80;75.50;;;;;;5109334;28;20923;-76
2023/03/18 01:17:07;;;;;;;4.67;2.57;;;3.70;76.20;;;;;;5111182;28;20499;-75
2023/03/18 01:19:34;;;;;;;6.13;3.93;;;3.70;76.30;;;;;;5110029;28;20550;-76
2023/03/18 01:22:02;;;;;;;8.20;4.40;;;3.60;76.90;;;;;;5110573;28;20442;-75
2023/03/18 01:24:29;;;;;;;4.40;3.70;;;3.50;77.60;;;;;;5107277;28;20450;-76
2023/03/18 01:26:57;;;;;;;6.17;3.40;;;3.50;77.80;;;;;;5109642;28;20539;-75
2023/03/18 01:29:25;;;;;;;7.20;2.77;;;3.50;77.70;;;;;;5109772;28;20833;-76
2023/03/18 01:31:52;;;;;;;6.40;2.73;;;3.50;77.40;;;;;;5110528;28;20515;-77
2023/03/18 01:34:20;;;;;;;4.77;3.00;;;3.50;78.60;;;;;;5110245;28;20503;-77
2023/03/18 01:36:47;;;;;;;2.87;2.63;;;3.40;79.20;;;;;;5105678;28;21212;-76
2023/03/18 01:39:14;;;;;;;3.73;2.90;;;3.30;79.70;;;;;;5095451;28;20485;-76
2023/03/18 01:41:41;;;;;;;4.63;2.33;;;3.30;79.60;;;;;;5109688;28;20460;-77
2023/03/18 01:44:13;;;;;;;6.80;4.80;;;3.30;79.10;;;;;;5109465;28;20947;-76
2023/03/18 01:46:44;;;;;;;4.60;2.40;;;3.30;78.80;;;;;;5110059;28;21134;-76
2023/03/18 01:49:16;;;;;;;5.07;3.17;;;3.30;79.30;;;;;;5108665;28;20468;-76
2023/03/18 01:51:47;;;;;;;6.20;3.73;;;3.20;80.00;;;;;;5110170;28;20543;-76
2023/03/18 01:54:15;;;;;;;4.27;2.93;;;3.10;81.40;;;;;;5110563;28;20504;-76
2023/03/18 01:56:45;;;;;;;4.40;3.50;;;3.00;82.00;;;;;;5107641;28;20458;-76
2023/03/18 01:59:14;;;;;;;6.80;3.73;;;3.00;83.30;;;;;;5108290;28;20536;-76
2023/03/18 02:01:47;;;;;;;6.33;4.90;;;2.90;86.50;;;;;;5108508;28;20462;-76
2023/03/18 02:04:15;;;;;;;3.77;3.40;;;2.90;90.90;;;;;;5096318;28;20444;-76
2023/03/18 02:06:42;;;;;;;5.80;3.90;;;2.80;94.70;;;;;;5109149;28;20808;-77
2023/03/18 02:09:10;;;;;;;4.37;3.23;;;2.60;96.20;;;;;;5103435;28;20473;-76
2023/03/18 02:11:40;;;;;;;6.33;4.87;;;2.60;99.20;;;;;;5109750;28;20451;-76
2023/03/18 02:14:12;;;;;;;5.17;4.43;;;2.50;99.90;;;;;;5108467;28;20466;-77
2023/03/18 02:16:44;;;;;;;5.83;4.60;;;2.50;99.90;;;;;;5100968;28;20450;-76
2023/03/18 02:19:20;;;;;;;8.90;4.60;;;2.30;99.90;;;;;;5110478;28;20485;-75
2023/03/18 02:21:55;;;;;;;7.00;4.57;;;2.20;99.90;;;;;;5102581;28;20506;-76
2023/03/18 02:24:32;;;;;;;6.13;4.30;;;2.00;99.90;;;;;;5108953;28;20562;-77
2023/03/18 02:27:02;;;;;;;5.03;4.27;;;2.00;99.90;;;;;;5108600;28;20481;-75
2023/03/18 02:29:33;;;;;;;7.57;3.40;;;1.80;99.90;;;;;;5109882;28;20973;-76
2023/03/18 02:32:02;;;;;;;9.70;4.60;;;1.70;99.90;;;;;;5105121;28;20462;-76
2023/03/18 02:34:31;;;;;;;10.10;6.13;;;1.70;99.90;;;;;;5109460;28;20442;-77
2023/03/18 02:36:59;;;;;;;5.80;4.17;;;1.70;99.90;;;;;;5107963;28;20443;-75
2023/03/18 02:39:28;;;;;;;7.97;4.80;;;1.60;99.90;;;;;;5100070;28;20486;-75
2023/03/18 02:41:55;;;;;;;10.73;5.67;;;1.50;99.90;;;;;;5109100;28;20470;-75
2023/03/18 02:44:23;;;;;;;8.80;4.50;;;1.50;99.90;;;;;;5105532;28;20527;-76
2023/03/18 02:46:54;;;;;;;6.20;4.17;;;1.40;99.90;;;;;;5100957;28;21011;-76
2023/03/18 02:49:23;;;;;;;6.40;4.53;;;1.40;99.90;;;;;;5104816;28;21001;-76
2023/03/18 02:51:51;;;;;;;10.83;5.23;;;1.40;99.90;;;;;;5108575;28;20511;-76
2023/03/18 02:54:24;;;;;;;6.07;3.67;;;1.50;99.90;;;;;;5103248;28;21229;-76
2023/03/18 02:56:51;;;;;;;8.77;4.00;;;1.40;99.90;;;;;;5107602;28;20454;-75
2023/03/18 02:59:19;;;;;;;9.77;4.60;;;1.30;99.90;;;;;;5105438;28;20482;-76
2023/03/18 03:01:50;;;;;;;8.33;4.80;;;1.40;99.90;;;;;;5094842;28;20524;-77
2023/03/18 03:04:20;;;;;;;5.50;4.10;;;1.30;99.90;;;;;;5104896;28;20443;-76
2023/03/18 03:06:47;;;;;;;8.87;4.87;;;1.30;99.90;;;;;;5098150;28;20454;-76
2023/03/18 03:09:16;;;;;;;9.40;6.30;;;1.30;99.90;;;;;;5104924;28;20453;-76
2023/03/18 03:11:44;;;;;;;6.90;4.87;;;1.30;99.90;;;;;;5107391;28;20466;-77
2023/03/18 03:14:12;;;;;;;7.23;5.10;;;1.30;99.90;;;;;;5107518;28;21004;-76
2023/03/18 03:16:40;;;;;;;7.87;4.87;;;1.20;99.90;;;;;;5097717;28;20431;-77
2023/03/18 03:19:07;;;;;;;6.80;5.20;;;1.10;99.90;;;;;;5098250;28;20911;-76
2023/03/18 03:21:35;;;;;;;7.00;5.37;;;1.10;99.90;;;;;;5106530;28;20443;-75
2023/03/18 03:24:03;;;;;;;7.90;5.30;;;1.00;99.90;;;;;;5106293;28;20543;-78
2023/03/18 03:26:30;;;;;;;7.27;4.80;;;1.10;99.90;;;;;;5104309;28;21265;-77
2023/03/18 03:28:57;;;;;;;4.63;4.23;;;1.00;99.90;;;;;;5101012;28;20439;-76
2023/03/18 03:31:26;;;;;;;5.90;5.30;;;1.00;99.90;;;;;;5101060;28;20511;-76
2023/03/18 03:33:53;;;;;;;6.23;5.33;;;1.00;99.90;;;;;;5099489;28;20512;-77
2023/03/18 03:36:20;;;;;;;5.53;3.80;;;1.00;99.90;;;;;;5097024;28;20450;-76
2023/03/18 03:38:49;;;;;;;13.23;4.40;;;1.10;99.90;;;;;;5107423;28;20504;-76
2023/03/18 03:41:16;;;;;;;5.50;4.13;;;1.20;99.90;;;;;;5105255;28;20462;-76
2023/03/18 03:43:44;;;;;;;4.10;3.53;;;1.20;99.90;;;;;;5109056;28;20523;-76
2023/03/18 03:46:11;;;;;;;4.63;3.70;;;1.20;99.90;;;;;;5098111;28;20529;-75
2023/03/18 03:48:39;;;;;;;3.70;3.23;;;1.20;99.90;;;;;;5106773;28;20494;-76
2023/03/18 03:51:06;;;;;;;6.27;3.37;;;1.30;99.90;;;;;;5107585;28;20446;-76
2023/03/18 03:53:34;;;;;;;5.17;3.13;;;1.40;99.90;;;;;;5106797;28;20976;-77
2023/03/18 03:56:04;;;;;;;4.33;2.53;;;1.50;99.90;;;;;;5107045;27;20435;-76
2023/03/18 03:58:31;;;;;;;4.80;2.63;;;1.50;99.90;;;;;;5104343;28;21006;-76
2023/03/18 04:00:58;;;;;;;4.67;2.53;;;1.40;99.90;;;;;;5102911;28;20547;-76
2023/03/18 04:03:25;;;;;;;8.00;3.97;;;1.30;99.90;;;;;;5102004;28;20965;-75
2023/03/18 04:05:52;;;;;;;4.57;3.20;;;1.30;99.90;;;;;;5106545;28;20529;-76
2023/03/18 04:08:19;;;;;;;4.63;2.30;;;1.20;99.90;;;;;;5098307;28;20455;-76
2023/03/18 04:10:46;;;;;;;6.10;3.50;;;1.10;99.90;;;;;;5107120;28;20835;-76
2023/03/18 04:13:15;;;;;;;5.37;3.77;;;1.10;99.90;;;;;;5107332;28;20450;-76
2023/03/18 04:15:42;;;;;;;4.27;3.10;;;1.00;99.90;;;;;;5106912;28;20482;-75
2023/03/18 04:18:09;;;;;;;5.90;4.63;;;1.10;99.90;;;;;;5106536;28;20910;-77
2023/03/18 04:20:36;;;;;;;6.47;2.50;;;1.10;99.90;;;;;;5101586;28;20490;-76
2023/03/18 04:23:04;;;;;;;3.77;2.90;;;1.10;99.90;;;;;;5093755;28;20976;-77
2023/03/18 04:25:32;;;;;;;5.00;2.97;;;1.20;99.90;;;;;;5105882;28;20921;-77
2023/03/18 04:27:58;;;;;;;6.93;3.83;;;1.20;99.90;;;;;;5106160;28;20474;-77
2023/03/18 04:30:27;;;;;;;6.50;4.57;;;1.10;99.90;;;;;;5098100;28;20454;-76
2023/03/18 04:32:54;;;;;;;4.23;3.40;;;1.10;99.90;;;;;;5105815;28;20455;-76
2023/03/18 04:35:22;;;;;;;4.10;2.87;;;1.00;99.90;;;;;;5113321;27;20486;-75
2023/03/18 04:37:49;;;;;;;5.57;3.67;;;0.90;99.90;;;;;;5107087;28;20534;-76
2023/03/18 04:40:17;;;;;;;4.23;3.70;;;0.90;99.90;;;;;;5106344;28;21063;-77
2023/03/18 04:42:46;;;;;;;5.50;3.47;;;0.90;99.90;;;;;;5106318;28;20462;-77
2023/03/18 04:45:14;;;;;;;4.47;2.87;;;1.00;99.90;;;;;;5098028;28;20447;-76
2023/03/18 04:47:44;;;;;;;5.60;3.13;;;1.00;99.90;;;;;;5099972;28;20481;-76
2023/03/18 04:50:14;;;;;;;5.93;3.30;;;0.90;99.90;;;;;;5090775;28;21044;-76
2023/03/18 04:52:43;;;;;;;4.47;3.03;;;0.90;99.90;;;;;;5093332;28;20447;-76
2023/03/18 04:55:12;;;;;;;9.27;3.30;;;0.80;99.90;;;;;;5102706;28;20534;-76
2023/03/18 04:57:41;;;;;;;3.90;3.33;;;0.80;99.90;;;;;;5096521;28;20716;-76
2023/03/18 05:00:11;;;;;;;7.70;5.20;;;1.00;99.90;;;;;;5098474;28;20259;-77
2023/03/18 05:02:38;;;;;;;5.27;4.00;;;1.00;99.90;;;;;;5095491;28;20989;-76
2023/03/18 05:05:07;;;;;;;9.00;5.70;;;0.90;99.90;;;;;;5098692;28;20489;-77
2023/03/18 05:07:33;;;;;;;6.63;5.20;;;0.80;99.90;;;;;;5099047;28;20506;-77
2023/03/18 05:10:01;;;;;;;5.90;4.00;;;0.70;99.90;;;;;;5096190;28;20489;-76
2023/03/18 05:12:28;;;;;;;4.13;3.00;;;0.60;99.90;;;;;;5102586;28;20493;-77
2023/03/18 05:14:55;;;;;;;4.60;2.90;;;0.60;99.90;;;;;;5104001;28;20554;-76
2023/03/18 05:17:21;;;;;;;5.43;4.20;;;0.60;99.90;;;;;;5088427;28;20443;-76
2023/03/18 05:19:49;;;;;;;7.40;4.03;;;0.60;99.90;;;;;;5096921;28;20486;-76
2023/03/18 05:22:20;;;;;;;3.87;2.83;;;0.60;99.90;;;;;;5094638;28;20447;-76
2023/03/18 05:24:48;;;;;;;4.03;3.23;;;0.80;99.90;;;;;;5102309;28;20933;-77
2023/03/18 05:27:17;;;;;;;5.70;3.03;;;0.80;99.90;;;;;;5098818;28;20480;-76
2023/03/18 05:29:44;;;;;;;4.07;2.87;;;0.70;99.90;;;;;;5103035;28;20526;-74
2023/03/18 05:32:13;;;;;;;4.13;3.53;;;0.70;99.90;;;;;;5101854;28;20470;-77
2023/03/18 05:34:40;;;;;;;11.20;5.50;;;0.70;99.90;;;;;;5101178;28;20520;-79
2023/03/18 05:37:09;;;;;;;10.70;9.53;;;0.80;99.90;;;;;;5098815;28;20450;-75
2023/03/18 05:39:38;;;;;;;6.80;5.93;;;0.90;99.90;;;;;;5100449;28;20594;-78
2023/03/18 05:42:06;;;;;;;7.67;5.07;;;0.80;99.90;;;;;;5098050;28;20451;-75
2023/03/18 05:44:34;;;;;;;5.10;3.90;;;0.90;99.90;;;;;;5101210;28;20504;-77
2023/03/18 05:47:01;;;;;;;6.30;4.65;;;0.90;99.90;;;;;;5103386;28;20519;-74
2023/03/18 05:49:28;;;;;;;5.63;5.13;;;1.00;99.90;;;;;;5103804;28;20197;-75
2023/03/18 05:51:55;;;;;;;6.00;3.95;;;1.20;99.90;;;;;;5103203;28;20205;-75
2023/03/18 05:54:23;;;;;;;6.83;3.90;;;1.20;99.90;;;;;;5103712;28;20202;-74
2023/03/18 05:56:52;;;;;;;5.23;4.80;;;1.20;99.90;;;;;;5101551;28;20439;-77
2023/03/18 05:59:19;;;;;;;6.93;3.90;;;1.20;99.90;;;;;;5104620;28;20442;-74
2023/03/18 06:01:47;;;;;;;4.37;3.97;;;1.20;99.90;;;;;;5099597;28;20539;-75
2023/03/18 06:04:16;;;;;;;3.40;3.10;;;1.30;99.90;;;;;;5105088;28;20457;-77
2023/03/18 06:06:43;;;;;;;8.17;4.73;;;1.40;99.90;;;;;;5097628;28;20438;-75
2023/03/18 06:09:12;;;;;;;17.53;6.00;;;1.40;99.90;;;;;;5101466;28;20516;-79
2023/03/18 06:11:39;;;;;;;9.73;5.23;;;1.50;99.90;;;;;;5100961;28;20523;-78
2023/03/18 06:14:08;;;;;;;8.00;5.10;;;1.50;99.90;;;;;;5107946;28;20442;-75
2023/03/18 06:16:35;;;;;;;6.10;4.30;;;1.70;99.90;;;;;;5102757;28;20447;-74
2023/03/18 06:19:03;;;;;;;6.17;4.50;;;1.80;99.90;;;;;;5103570;28;20518;-75
2023/03/18 06:21:30;;;;;;;8.80;3.80;;;1.80;99.90;;;;;;5102453;28;20508;-77
2023/03/18 06:23:57;;;;;;;8.67;4.57;;;1.80;99.90;;;;;;5094984;28;20459;-76
2023/03/18 06:26:24;;;;;;;6.83;5.10;;;1.80;99.90;;;;;;5102051;28;20634;-78
2023/03/18 06:28:51;;;;;;;9.10;5.10;;;1.90;99.90;;;;;;5100212;28;20463;-75
2023/03/18 06:31:20;;;;;;;8.33;4.10;;;1.90;99.90;;;;;;5104827;28;20509;-74
2023/03/18 06:33:47;;;;;;;5.00;3.63;;;1.90;99.90;;;;;;5106116;28;20531;-76
2023/03/18 06:36:15;;;;;;;6.37;5.50;;;2.00;99.90;;;;;;5101131;28;20515;-77
2023/03/18 06:38:42;;;;;;;5.47;4.40;;;2.20;99.90;;;;;;5098911;28;20444;-74
2023/03/18 06:41:10;;;;;;;4.30;4.00;;;2.10;99.90;;;;;;5106339;28;20490;-74
2023/03/18 06:43:37;;;;;;;5.93;5.13;;;2.20;99.90;;;;;;5104749;28;20446;-77
2023/03/18 06:46:04;;;;;;;5.67;3.70;;;2.20;99.90;;;;;;5101522;28;20466;-77
2023/03/18 06:48:34;;;;;;;5.23;4.53;;;2.40;99.90;;;;;;5105903;28;20854;-74
2023/03/18 06:51:01;;;;;;;3.67;3.10;;;2.40;99.90;;;;;;5104221;28;20481;-75
2023/03/18 06:53:28;;;;;;;5.77;4.20;;;2.60;99.90;;;;;;5105107;28;21167;-75
2023/03/18 06:55:55;;;;;;;5.13;4.50;;;2.80;99.90;;;;;;5101764;28;20459;-77
2023/03/18 06:58:23;;;;;;;5.33;4.47;;;3.00;99.90;;;;;;5101099;28;20808;-75
2023/03/18 07:00:50;;;;;;;4.07;3.30;;;3.20;99.90;;;;;;5104446;28;20486;-75
2023/03/18 07:03:17;;;;;;;4.80;3.43;;;3.30;99.90;;;;;;5089298;28;20459;-75
2023/03/18 07:05:46;;;;;;;5.70;4.00;;;3.40;99.90;;;;;;5093427;28;21021;-75
2023/03/18 07:08:14;;;;;;;6.23;3.63;;;3.60;99.90;;;;;;5102334;28;20461;-75
2023/03/18 07:10:41;;;;;;;5.73;4.43;;;3.70;99.90;;;;;;5099671;28;20459;-76
2023/03/18 07:13:10;;;;;;;3.93;3.53;;;3.90;99.90;;;;;;5104898;28;20451;-73
2023/03/18 07:15:37;;;;;;;5.70;3.53;;;3.90;99.90;;;;;;5104429;28;20974;-75
2023/03/18 07:18:05;;;;;;;5.83;3.80;;;4.10;99.90;;;;;;5095148;28;21008;-76
2023/03/18 07:20:33;;;;;;;4.50;3.93;;;4.10;99.90;;;;;;5097820;28;21291;-75
2023/03/18 07:23:02;;;;;;;5.80;4.30;;;4.30;99.90;;;;;;5097465;27;20461;-73
2023/03/18 07:25:29;;;;;;;5.87;3.83;;;4.30;99.90;;;;;;5105848;28;20483;-77
2023/03/18 07:27:56;;;;;;;3.83;3.50;;;4.40;99.90;;;;;;5092329;28;20444;-76
2023/03/18 07:30:23;;;;;;;6.63;4.43;;;4.40;99.90;;;;;;5102808;28;21167;-74
2023/03/18 07:32:50;;;;;;;5.07;4.10;;;4.50;99.90;;;;;;5098784;28;20455;-75
2023/03/18 07:35:17;;;;;;;6.40;4.13;;;4.50;99.90;;;;;;5102999;28;20446;-76
2023/03/18 07:37:44;;;;;;;4.77;3.33;;;4.60;99.90;;;;;;5094202;28;20463;-76
2023/03/18 07:40:14;;;;;;;4.77;4.13;;;4.70;99.90;;;;;;5093329;28;20531;-76
2023/03/18 07:42:41;;;;;;;8.30;4.17;;;4.90;99.90;;;;;;5097399;28;20519;-76
2023/03/18 07:45:09;;;;;;;7.93;4.43;;;5.00;99.90;;;;;;5099611;28;20451;-76
2023/03/18 07:47:36;;;;;;;4.60;3.00;;;5.00;99.90;;;;;;5101933;28;20447;-77
2023/03/18 07:50:04;;;;;;;4.47;3.50;;;5.00;99.90;;;;;;5099513;28;20470;-77
2023/03/18 07:52:31;;;;;;;4.50;3.97;;;4.90;99.90;;;;;;5097635;28;20455;-75
2023/03/18 07:54:58;;;;;;;5.70;3.57;;;4.90;99.50;;;;;;5106619;28;20454;-76
2023/03/18 07:57:26;;;;;;;4.70;3.50;;;5.00;99.90;;;;;;5100101;28;20462;-77
2023/03/18 07:59:53;;;;;;;3.63;3.30;;;5.20;99.80;;;;;;5098109;28;20536;-75
2023/03/18 08:02:20;;;;;;;4.00;3.57;;;5.20;99.10;;;;;;5099926;28;20446;-75
2023/03/18 08:04:48;;;;;;;4.97;4.00;;;5.40;99.90;;;;;;5106006;28;21235;-77
2023/03/18 08:07:16;;;;;;;4.17;3.77;;;5.50;99.40;;;;;;5101281;28;20610;-78
2023/03/18 08:09:42;;;;;;;10.00;2.50;;;5.60;99.50;;;;;;5107686;28;20451;-76
2023/03/18 08:12:10;;;;;;;4.30;3.50;;;5.70;98.60;;;;;;5107068;28;20507;-76
2023/03/18 08:14:38;;;;;;;4.93;3.80;;;5.80;99.90;;;;;;5106155;28;20504;-76
2023/03/18 08:17:05;;;;;;;5.40;3.80;;;5.80;99.90;;;;;;5092615;28;20928;-81
2023/03/18 08:19:32;;;;;;;6.80;3.80;;;6.00;99.40;;;;;;5099791;28;20515;-75
2023/03/18 08:21:59;;;;;;;5.30;3.70;;;6.10;99.90;;;;;;5106683;28;20482;-76
2023/03/18 08:24:26;;;;;;;5.03;3.80;;;6.20;98.60;;;;;;5105861;28;20516;-75
2023/03/18 08:26:53;;;;;;;4.97;3.60;;;6.30;97.50;;;;;;5107511;28;20477;-75
2023/03/18 08:29:21;;;;;;;4.40;3.40;;;6.30;97.60;;;;;;5102916;28;20443;-76
2023/03/18 08:31:50;;;;;;;7.03;4.33;;;6.50;96.90;;;;;;5103305;28;20446;-77
2023/03/18 08:34:17;;;;;;;5.10;3.23;;;6.70;97.70;;;;;;5106672;28;20517;-77
2023/03/18 08:36:44;;;;;;;7.43;3.67;;;6.70;97.20;;;;;;5106513;28;20443;-77
2023/03/18 08:39:11;;;;;;;12.13;3.90;;;6.80;96.40;;;;;;5104640;28;20454;-75
2023/03/18 08:41:38;;;;;;;4.03;3.63;;;6.90;97.40;;;;;;5106063;28;21001;-76
2023/03/18 08:44:07;;;;;;;4.00;3.37;;;7.10;98.60;;;;;;5106806;28;20462;-75
2023/03/18 08:46:34;;;;;;;5.00;3.57;;;7.10;95.90;;;;;;5097967;28;20486;-77
2023/03/18 08:49:03;;;;;;;6.17;4.17;;;7.40;96.40;;;;;;5098865;28;20519;-76
2023/03/18 08:51:31;;;;;;;5.57;3.67;;;7.40;96.40;;;;;;5101728;28;20447;-77
2023/03/18 08:53:58;;;;;;;5.80;4.10;;;7.60;95.30;;;;;;5102478;28;20447;-77
2023/03/18 08:56:25;;;;;;;7.87;3.97;;;7.70;95.00;;;;;;5104430;28;20898;-77
2023/03/18 08:58:52;;;;;;;3.57;3.27;;;7.80;95.90;;;;;;5099740;28;20495;-76
2023/03/18 09:01:21;;;;;;;5.23;3.50;;;7.70;94.80;;;;;;5092005;28;20478;-75
2023/03/18 09:03:48;;;;;;;6.07;4.70;;;7.90;94.60;;;;;;5102284;28;20455;-75
2023/03/18 09:06:17;;;;;;;5.30;4.03;;;8.10;95.00;;;;;;5104708;28;20465;-79
2023/03/18 09:08:44;;;;;;;4.13;3.60;;;8.00;95.30;;;;;;5090982;28;20513;-78
2023/03/18 09:11:12;;;;;;;4.17;3.47;;;8.40;94.60;;;;;;5101428;28;20470;-76
2023/03/18 09:13:39;;;;;;;9.23;4.30;;;8.50;95.20;;;;;;5104560;28;20829;-77
2023/03/18 09:16:07;;;;;;;5.67;3.77;;;8.50;92.50;;;;;;5102029;28;20573;-75
2023/03/18 09:18:35;;;;;;;4.70;3.70;;;8.40;94.70;;;;;;5097378;28;20503;-75
2023/03/18 09:21:03;;;;;;;6.87;3.70;;;8.30;94.50;;;;;;5101645;28;20485;-78
2023/03/18 09:23:33;;;;;;;5.13;3.60;;;8.40;95.50;;;;;;5097872;28;20489;-78
2023/03/18 09:26:01;;;;;;;8.47;4.20;;;8.70;94.10;;;;;;5104411;28;20498;-80
2023/03/18 09:28:28;;;;;;;4.57;3.40;;;8.80;93.20;;;;;;5101396;28;20844;-74
2023/03/18 09:30:55;;;;;;;4.17;3.33;;;8.90;93.70;;;;;;5104487;28;20447;-76
2023/03/18 09:33:23;;;;;;;8.60;3.93;;;8.90;92.20;;;;;;5107432;28;20470;-77
2023/03/18 09:35:50;;;;;;;5.47;4.37;;;9.30;93.50;;;;;;5106486;28;20474;-78
2023/03/18 09:38:19;;;;;;;4.70;3.37;;;9.30;92.00;;;;;;5103330;28;20536;-75
2023/03/18 09:40:59;;;;;;;4.03;3.57;;;9.50;92.70;;;;;;5107215;28;20478;-75
2023/03/18 09:43:44;;;;;;;5.70;4.50;;;9.60;91.40;;;;;;5105769;28;20531;-78
2023/03/18 09:46:24;;;;;;;4.33;3.80;;;9.70;93.50;;;;;;5103147;28;20454;-77
2023/03/18 09:49:14;;;;;;;5.97;4.50;;;9.50;92.50;;;;;;5092852;28;20463;-75
2023/03/18 09:51:54;;;;;;;4.73;4.33;;;9.90;92.20;;;;;;5104668;28;20439;-78
2023/03/18 09:54:31;;;;;;;5.17;3.87;;;9.80;92.50;;;;;;5109302;28;20480;-76
2023/03/18 09:57:02;;;;;;;7.10;4.73;;;10.00;91.90;;;;;;5107830;28;21087;-76
2023/03/18 09:59:36;;;;;;;5.83;4.27;;;10.30;91.60;;;;;;5093611;28;20466;-77
2023/03/18 10:02:06;;;;;;;4.23;3.67;;;10.50;92.30;;;;;;5091011;28;20582;-76
2023/03/18 10:04:41;;;;;;;5.63;4.47;;;10.60;89.60;;;;;;5106509;28;20468;-78
2023/03/18 10:07:14;;;;;;;6.67;3.83;;;10.50;90.50;;;;;;5103729;28;20449;-77
2023/03/18 10:09:44;;;;;;;4.60;4.20;;;10.50;91.00;;;;;;5105481;28;20444;-75
2023/03/18 10:12:18;;;;;;;4.93;4.17;;;10.50;90.90;;;;;;5113382;27;20842;-77
2023/03/18 10:14:49;;;;;;;5.80;4.07;;;10.40;92.50;;;;;;5107535;28;20458;-77
2023/03/18 10:17:20;;;;;;;8.17;4.53;;;10.50;93.70;;;;;;5103424;28;20446;-75
2023/03/18 10:19:50;;;;;;;6.83;4.33;;;10.50;91.70;;;;;;5103402;28;20461;-77
2023/03/18 10:22:40;;;;;;;7.10;5.20;;;10.70;91.70;;;;;;5107112;28;20486;-78
2023/03/18 10:25:16;;;;;;;5.47;4.97;;;10.80;93.70;;;;;;5105928;28;20446;-77
2023/03/18 10:28:02;;;;;;;11.47;5.60;;;10.80;90.70;;;;;;5104915;28;20538;-75
2023/03/18 10:30:47;;;;;;;6.13;5.10;;;11.00;92.20;;;;;;5105097;28;20462;-77
2023/03/18 10:33:22;;;;;;;5.67;5.07;;;11.10;94.00;;;;;;5103969;28;20537;-78
2023/03/18 10:35:59;;;;;;;8.00;5.27;;;11.30;92.10;;;;;;5109313;28;20519;-78
2023/03/18 10:38:30;;;;;;;8.50;6.83;;;11.40;92.10;;;;;;5108114;28;20542;-77
2023/03/18 10:40:58;;;;;;;8.20;5.63;;;11.70;91.40;;;;;;5105599;28;20455;-78
2023/03/18 10:43:29;;;;;;;6.93;4.93;;;11.80;92.60;;;;;;5103589;28;20472;-75
2023/03/18 10:46:01;;;;;;;8.40;5.20;;;12.00;91.70;;;;;;5107563;28;20466;-78
2023/03/18 10:48:32;;;;;;;10.10;5.60;;;11.90;90.60;;;;;;5105701;28;20534;-76
2023/03/18 10:51:09;;;;;;;5.97;5.10;;;12.00;93.70;;;;;;5107808;28;20500;-75
2023/03/18 10:53:42;;;;;;;6.43;5.40;;;11.80;92.70;;;;;;5100168;28;20462;-78
2023/03/18 10:56:12;;;;;;;6.33;5.57;;;12.20;93.40;;;;;;5099533;28;20440;-78
2023/03/18 10:58:42;;;;;;;7.53;6.67;;;12.40;92.20;;;;;;5103200;28;20459;-76
2023/03/18 11:01:11;;;;;;;6.27;4.90;;;12.50;91.30;;;;;;5094991;28;20574;-76
2023/03/18 11:03:44;;;;;;;7.83;5.40;;;12.40;91.10;;;;;;5094229;28;20838;-77
2023/03/18 11:06:17;;;;;;;5.70;4.50;;;12.40;91.40;;;;;;5096670;28;20499;-79
2023/03/18 11:08:48;;;;;;;9.80;6.20;;;12.80;91.40;;;;;;5103739;28;20620;-78
2023/03/18 11:11:26;;;;;;;6.20;5.70;;;13.10;91.50;;;;;;5090937;28;20459;-77
2023/03/18 11:13:56;;;;;;;6.43;5.73;;;13.40;90.10;;;;;;5095287;28;20509;-77
2023/03/18 11:16:30;;;;;;;11.93;5.73;;;13.30;92.50;;;;;;5099865;28;20908;-77
2023/03/18 11:18:58;;;;;;;6.80;5.47;;;13.40;90.80;;;;;;5095820;28;20500;-77
2023/03/18 11:21:27;;;;;;;9.80;6.50;;;13.50;90.60;;;;;;5100216;28;20489;-79
2023/03/18 11:24:09;;;;;;;6.60;5.27;;;13.70;90.10;;;;;;5089288;28;20463;-76
2023/03/18 11:26:52;;;;;;;5.93;5.33;;;13.60;90.70;;;;;;5090663;28;20517;-79
2023/03/18 11:29:24;;;;;;;6.50;5.80;;;13.80;90.60;;;;;;5091936;28;20455;-80
2023/03/18 11:31:57;;;;;;;7.00;6.30;;;13.80;87.50;;;;;;5097892;28;20470;-77
2023/03/18 11:34:25;;;;;;;7.37;6.40;;;13.50;89.60;;;;;;5096180;28;20450;-76
2023/03/18 11:36:59;;;;;;;7.57;6.87;;;13.50;88.90;;;;;;5099599;28;20435;-77
2023/03/18 11:39:29;;;;;;;8.17;6.87;;;13.50;88.00;;;;;;5105854;28;20918;-79
2023/03/18 11:41:58;;;;;;;7.50;6.70;;;13.40;88.00;;;;;;5106283;28;21062;-78
2023/03/18 11:44:29;;;;;;;8.43;6.67;;;13.50;87.90;;;;;;5106803;28;20530;-77
2023/03/18 11:47:03;;;;;;;8.30;6.83;;;13.30;89.30;;;;;;5099444;28;20458;-80
2023/03/18 11:49:30;;;;;;;9.13;7.73;;;13.60;90.10;;;;;;5101460;28;20987;-77
2023/03/18 11:52:22;;;;;;;8.93;7.17;;;13.50;88.90;;;;;;5104113;28;20519;-77
2023/03/18 11:55:17;;;;;;;10.07;7.80;;;13.60;90.50;;;;;;5095915;28;20462;-79
2023/03/18 11:58:02;;;;;;;8.37;6.90;;;13.60;90.00;;;;;;5093671;28;20455;-78
2023/03/18 12:00:37;;;;;;;7.93;6.17;;;13.60;88.80;;;;;;5102241;28;20981;-79
2023/03/18 12:03:46;;;;;;;7.83;7.03;;;13.60;88.00;;;;;;5094643;28;20490;-79
2023/03/18 12:06:20;;;;;;;7.33;6.60;;;13.70;88.70;;;;;;5101497;28;20987;-78
2023/03/18 12:08:55;;;;;;;8.10;6.20;;;13.90;88.60;;;;;;5101659;28;20446;-78
2023/03/18 12:11:31;;;;;;;14.90;8.20;;;14.00;87.00;;;;;;5097754;27;21298;-79
2023/03/18 12:14:04;;;;;;;10.50;7.93;;;13.80;88.50;;;;;;5105998;28;20950;-81
2023/03/18 12:16:45;;;;;;;8.47;6.60;;;13.90;90.40;;;;;;5104797;28;20546;-78
2023/03/18 12:19:42;;;;;;;8.63;7.83;;;14.40;88.60;;;;;;5104473;28;20442;-77
2023/03/18 12:22:29;;;;;;;8.30;7.17;;;14.70;87.70;;;;;;5096035;28;20478;-79
2023/03/18 12:25:13;;;;;;;6.90;6.23;;;14.70;86.90;;;;;;5104110;28;20454;-79
2023/03/18 12:27:49;;;;;;;8.80;7.37;;;14.50;84.50;;;;;;5097295;28;20447;-77
2023/03/18 12:30:37;;;;;;;8.43;6.60;;;14.50;86.10;;;;;;5103188;28;20466;-77
2023/03/18 12:33:13;;;;;;;9.10;6.80;;;14.60;88.60;;;;;;5105790;28;20511;-78
2023/03/18 12:35:51;;;;;;;9.07;7.20;;;14.70;86.10;;;;;;5096690;28;20802;-77
2023/03/18 12:38:41;;;;;;;7.73;6.87;;;14.60;86.80;;;;;;5107208;28;20519;-82
2023/03/18 12:41:16;;;;;;;9.67;6.80;;;14.80;88.40;;;;;;5104800;28;20939;-76
2023/03/18 12:44:04;;;;;;;13.17;8.70;;;14.70;87.50;;;;;;5106145;28;20488;-77
2023/03/18 12:46:34;;;;;;;9.27;6.77;;;14.70;84.70;;;;;;5096627;28;20458;-79
2023/03/18 12:49:10;;;;;;;9.70;8.00;;;14.80;85.10;;;;;;5096452;28;21170;-77
2023/03/18 12:51:46;;;;;;;9.10;7.40;;;14.80;82.10;;;;;;5098746;28;20466;-79
2023/03/18 12:54:20;;;;;;;9.77;7.40;;;14.70;84.10;;;;;;5102218;28;21165;-78
2023/03/18 12:56:51;;;;;;;9.03;8.10;;;14.90;83.20;;;;;;5097192;28;20505;-78
2023/03/18 12:59:24;;;;;;;7.87;6.97;;;14.90;84.10;;;;;;5101329;28;20779;-78
2023/03/18 13:02:13;;;;;;;9.30;7.83;;;15.30;85.80;;;;;;5104377;28;20477;-77
2023/03/18 13:04:50;;;;;;;16.80;8.50;;;15.70;84.60;;;;;;5090994;28;20467;-77
2023/03/18 13:07:25;;;;;;;11.47;9.00;;;15.50;81.70;;;;;;5102362;28;21364;-77